Time;durP1;ratioP1;P1;durP2;ratioP2;P2;SDS_P1;SDS_P2;PMS_P1;PMS_P2;Temp;Humidity;BMP_temperature;BMP_pressure;BME280_temperature;BME280_humidity;BME280_pressure;Samples;Min_cycle;Max_cycle;Signal;HPM_P1;HPM_P2
2023/09/12 00:00:05;;;;;;;5.23;4.77;;;;;;;;;;5007155;28;20643;-48
2023/09/12 00:02:31;;;;;;;5.57;5.07;;;;;;;;;;4989087;28;20496;-48
2023/09/12 00:04:58;;;;;;;5.77;5.27;;;;;;;;;;5007244;28;20235;-47
2023/09/12 00:07:24;;;;;;;5.10;4.70;;;;;;;;;;5005858;28;20861;-47
2023/09/12 00:09:50;;;;;;;5.07;4.67;;;;;;;;;;5008246;28;20634;-47
2023/09/12 00:12:16;;;;;;;5.70;5.10;;;;;;;;;;5007395;28;20250;-49
2023/09/12 00:14:42;;;;;;;6.00;5.40;;;;;;;;;;5006476;28;20188;-48
2023/09/12 00:17:10;;;;;;;5.50;5.00;;;;;;;;;;5004775;28;20644;-49
2023/09/12 00:19:36;;;;;;;5.63;5.07;;;;;;;;;;5002344;28;20240;-49
2023/09/12 00:22:03;;;;;;;5.37;4.97;;;;;;;;;;5006703;28;20185;-49
2023/09/12 00:24:30;;;;;;;5.70;5.20;;;;;;;;;;5007717;28;20654;-49
2023/09/12 00:26:56;;;;;;;5.63;5.23;;;;;;;;;;5007171;28;20198;-48
2023/09/12 00:29:23;;;;;;;5.50;5.00;;;;;;;;;;5003748;28;20280;-48
2023/09/12 00:31:49;;;;;;;7.87;6.90;;;;;;;;;;5007732;28;20182;-48
2023/09/12 00:34:18;;;;;;;8.90;8.00;;;;;;;;;;5008300;28;20236;-48
2023/09/12 00:36:44;;;;;;;9.83;8.83;;;;;;;;;;5007506;28;20703;-48
2023/09/12 00:39:10;;;;;;;8.90;7.47;;;;;;;;;;5006294;28;20210;-49
2023/09/12 00:41:36;;;;;;;7.97;7.17;;;;;;;;;;5007920;28;20197;-48
2023/09/12 00:44:03;;;;;;;7.47;6.77;;;;;;;;;;5007128;28;20534;-48
2023/09/12 00:46:29;;;;;;;7.60;6.87;;;;;;;;;;5006561;28;20181;-48
2023/09/12 00:48:56;;;;;;;7.90;7.10;;;;;;;;;;5005419;28;20526;-48
2023/09/12 00:51:22;;;;;;;8.53;7.73;;;;;;;;;;5007612;28;20659;-48
2023/09/12 00:53:49;;;;;;;8.57;6.93;;;;;;;;;;5007116;28;20188;-49
2023/09/12 00:56:15;;;;;;;7.27;6.57;;;;;;;;;;5006970;28;20599;-49
2023/09/12 00:58:41;;;;;;;10.60;7.43;;;;;;;;;;4999559;28;20175;-48
2023/09/12 01:01:07;;;;;;;7.70;7.10;;;;;;;;;;5004731;28;20176;-50
2023/09/12 01:03:35;;;;;;;7.40;6.80;;;;;;;;;;5001200;28;20202;-49
2023/09/12 01:06:03;;;;;;;7.20;6.50;;;;;;;;;;5007474;28;20919;-49
2023/09/12 01:08:29;;;;;;;7.33;6.63;;;;;;;;;;5009162;28;20593;-48
2023/09/12 01:10:57;;;;;;;7.60;6.90;;;;;;;;;;5010436;28;20192;-48
2023/09/12 01:13:24;;;;;;;7.60;6.80;;;;;;;;;;5005764;28;20188;-48
2023/09/12 01:15:50;;;;;;;7.83;7.13;;;;;;;;;;5010144;28;20178;-48
2023/09/12 01:18:17;;;;;;;8.73;7.83;;;;;;;;;;5002082;28;20582;-48
2023/09/12 01:20:51;;;;;;;8.60;7.23;;;;;;;;;;5010269;28;20732;-48
2023/09/12 01:23:44;;;;;;;8.63;7.70;;;;;;;;;;5008379;28;20175;-48
2023/09/12 01:26:29;;;;;;;7.33;6.67;;;;;;;;;;5011269;28;20186;-49
2023/09/12 01:28:56;;;;;;;8.67;7.73;;;;;;;;;;5007191;28;20230;-49
2023/09/12 01:31:23;;;;;;;7.63;7.03;;;;;;;;;;5009932;28;20272;-49
2023/09/12 01:33:49;;;;;;;7.93;7.27;;;;;;;;;;5008911;28;20271;-50
2023/09/12 01:36:16;;;;;;;8.17;7.33;;;;;;;;;;5009572;28;20206;-50
2023/09/12 01:38:42;;;;;;;8.03;7.33;;;;;;;;;;5008215;28;20553;-49
2023/09/12 01:41:09;;;;;;;10.00;7.93;;;;;;;;;;5009787;28;20529;-49
2023/09/12 01:43:37;;;;;;;9.77;8.43;;;;;;;;;;5009271;28;20289;-49
2023/09/12 01:46:03;;;;;;;9.17;7.80;;;;;;;;;;5009321;28;20184;-49
2023/09/12 01:48:35;;;;;;;8.37;7.60;;;;;;;;;;5008545;28;20187;-48
2023/09/12 01:51:02;;;;;;;8.80;7.90;;;;;;;;;;5009858;28;20187;-50
2023/09/12 01:53:29;;;;;;;8.10;7.30;;;;;;;;;;5013349;28;20548;-50
2023/09/12 01:55:57;;;;;;;7.53;6.83;;;;;;;;;;5010550;28;20180;-49
2023/09/12 01:58:23;;;;;;;8.00;7.20;;;;;;;;;;5009678;28;20185;-48
2023/09/12 02:00:49;;;;;;;9.63;8.47;;;;;;;;;;5009091;28;20265;-49
2023/09/12 02:03:16;;;;;;;9.03;8.23;;;;;;;;;;5010404;28;20732;-48
2023/09/12 02:05:43;;;;;;;8.17;7.47;;;;;;;;;;5009084;28;20186;-48
2023/09/12 02:08:09;;;;;;;8.40;6.97;;;;;;;;;;5009695;28;20183;-48
2023/09/12 02:10:35;;;;;;;8.53;7.73;;;;;;;;;;5009165;28;20516;-48
2023/09/12 02:13:02;;;;;;;10.13;7.70;;;;;;;;;;5009764;28;20601;-48
2023/09/12 02:15:28;;;;;;;7.63;7.00;;;;;;;;;;5010007;28;20177;-50
2023/09/12 02:17:54;;;;;;;9.00;6.70;;;;;;;;;;5008293;28;20182;-48
2023/09/12 02:20:21;;;;;;;7.70;7.00;;;;;;;;;;5009439;28;20191;-48
2023/09/12 02:22:47;;;;;;;10.20;8.00;;;;;;;;;;5007104;28;20199;-49
2023/09/12 02:25:13;;;;;;;10.03;7.27;;;;;;;;;;4987639;28;20225;-49
2023/09/12 02:27:39;;;;;;;7.43;6.80;;;;;;;;;;5011364;28;20231;-48
2023/09/12 02:30:06;;;;;;;7.90;7.20;;;;;;;;;;5008303;28;20277;-49
2023/09/12 02:32:32;;;;;;;8.13;7.43;;;;;;;;;;5006227;28;20284;-48
2023/09/12 02:34:58;;;;;;;7.43;6.77;;;;;;;;;;5009498;28;20201;-48
2023/09/12 02:37:25;;;;;;;9.13;8.20;;;;;;;;;;5007389;28;20176;-48
2023/09/12 02:39:51;;;;;;;7.80;7.10;;;;;;;;;;5008136;28;20231;-48
2023/09/12 02:42:17;;;;;;;9.17;7.70;;;;;;;;;;5005419;28;20594;-50
2023/09/12 02:44:44;;;;;;;7.67;6.93;;;;;;;;;;5007693;28;20678;-47
2023/09/12 02:47:10;;;;;;;8.43;7.73;;;;;;;;;;5007012;28;20185;-48
2023/09/12 02:49:36;;;;;;;7.67;6.97;;;;;;;;;;5000687;28;20245;-49
2023/09/12 02:52:02;;;;;;;7.73;7.03;;;;;;;;;;5007845;28;20323;-48
2023/09/12 02:54:31;;;;;;;7.93;7.13;;;;;;;;;;5005574;28;20196;-48
2023/09/12 02:56:58;;;;;;;7.60;6.90;;;;;;;;;;5006878;28;20318;-48
2023/09/12 02:59:24;;;;;;;7.50;6.80;;;;;;;;;;5006229;28;20204;-47
2023/09/12 03:01:50;;;;;;;9.67;7.93;;;;;;;;;;5006001;28;20576;-46
2023/09/12 03:04:17;;;;;;;8.70;8.00;;;;;;;;;;5006360;28;20190;-47
2023/09/12 03:06:43;;;;;;;8.43;7.63;;;;;;;;;;5007553;28;20587;-46
2023/09/12 03:09:11;;;;;;;9.83;8.10;;;;;;;;;;5006871;28;20203;-47
2023/09/12 03:11:37;;;;;;;7.50;6.70;;;;;;;;;;5007126;28;20190;-47
2023/09/12 03:14:03;;;;;;;7.87;7.10;;;;;;;;;;5006825;28;20251;-47
2023/09/12 03:16:29;;;;;;;9.00;8.20;;;;;;;;;;5005530;28;20546;-46
2023/09/12 03:18:56;;;;;;;8.37;7.57;;;;;;;;;;5007216;28;20198;-46
2023/09/12 03:21:22;;;;;;;8.70;7.90;;;;;;;;;;5007208;28;20179;-45
2023/09/12 03:23:48;;;;;;;8.07;7.27;;;;;;;;;;5003129;28;20177;-46
2023/09/12 03:26:14;;;;;;;8.32;7.50;;;;;;;;;;5007793;28;20918;-49
2023/09/12 03:28:41;;;;;;;8.60;7.77;;;;;;;;;;5007229;28;20294;-47
2023/09/12 03:31:12;;;;;;;8.23;7.53;;;;;;;;;;5008284;28;20615;-46
2023/09/12 03:33:38;;;;;;;8.33;7.63;;;;;;;;;;5007336;28;20193;-46
2023/09/12 03:36:06;;;;;;;7.90;7.20;;;;;;;;;;5008093;28;20492;-47
2023/09/12 03:38:33;;;;;;;8.63;7.93;;;;;;;;;;5006594;28;20638;-48
2023/09/12 03:40:59;;;;;;;8.00;6.70;;;;;;;;;;5008123;28;20217;-46
2023/09/12 03:43:26;;;;;;;7.80;7.00;;;;;;;;;;4990441;28;20235;-47
2023/09/12 03:45:55;;;;;;;8.17;7.23;;;;;;;;;;5007300;28;20276;-47
2023/09/12 03:48:21;;;;;;;8.07;7.37;;;;;;;;;;5006881;28;20186;-46
2023/09/12 03:50:47;;;;;;;8.13;7.37;;;;;;;;;;5007725;28;20208;-46
2023/09/12 03:53:14;;;;;;;8.33;7.50;;;;;;;;;;5005568;28;20183;-47
2023/09/12 03:55:40;;;;;;;8.73;7.77;;;;;;;;;;5007506;28;20444;-47
2023/09/12 03:58:07;;;;;;;8.13;7.43;;;;;;;;;;5003922;28;20233;-46
2023/09/12 04:00:33;;;;;;;8.90;8.10;;;;;;;;;;4989373;28;20192;-47
2023/09/12 04:02:59;;;;;;;8.63;7.83;;;;;;;;;;5007294;28;20357;-47
2023/09/12 04:05:26;;;;;;;9.17;8.37;;;;;;;;;;4989255;28;20183;-46
2023/09/12 04:07:52;;;;;;;9.40;8.47;;;;;;;;;;5005694;28;20179;-47
2023/09/12 04:10:19;;;;;;;8.93;8.13;;;;;;;;;;5005722;28;20353;-47
2023/09/12 04:12:45;;;;;;;8.87;7.97;;;;;;;;;;5007493;28;20691;-47
2023/09/12 04:15:11;;;;;;;9.27;8.43;;;;;;;;;;5002945;28;20183;-46
2023/09/12 04:17:37;;;;;;;9.07;8.27;;;;;;;;;;5007082;28;20182;-46
2023/09/12 04:20:04;;;;;;;8.77;7.97;;;;;;;;;;5007492;28;20209;-47
2023/09/12 04:22:30;;;;;;;9.80;8.67;;;;;;;;;;5004059;28;20186;-47
2023/09/12 04:24:56;;;;;;;9.03;8.17;;;;;;;;;;5001621;28;20296;-48
2023/09/12 04:27:22;;;;;;;10.57;9.57;;;;;;;;;;5001769;28;20187;-47
2023/09/12 04:29:49;;;;;;;9.37;8.47;;;;;;;;;;5002463;28;20276;-47
2023/09/12 04:32:16;;;;;;;8.77;8.07;;;;;;;;;;5005811;28;20187;-48
2023/09/12 04:34:43;;;;;;;9.70;8.80;;;;;;;;;;5007695;28;20720;-47
2023/09/12 04:37:09;;;;;;;9.70;8.80;;;;;;;;;;5004830;28;20189;-48
2023/09/12 04:39:36;;;;;;;8.93;8.23;;;;;;;;;;5005383;28;20182;-49
2023/09/12 04:42:04;;;;;;;8.97;8.17;;;;;;;;;;5006873;28;20179;-48
2023/09/12 04:44:31;;;;;;;8.20;7.40;;;;;;;;;;5006423;28;20210;-47
2023/09/12 04:46:57;;;;;;;9.27;8.40;;;;;;;;;;5006142;28;20179;-48
2023/09/12 04:49:24;;;;;;;9.67;8.57;;;;;;;;;;5002942;28;20217;-49
2023/09/12 04:51:50;;;;;;;8.77;8.03;;;;;;;;;;4998977;28;20289;-47
2023/09/12 04:54:16;;;;;;;10.43;9.53;;;;;;;;;;5004012;28;20191;-48
2023/09/12 04:56:42;;;;;;;9.10;8.20;;;;;;;;;;5005851;28;20289;-48
2023/09/12 04:59:11;;;;;;;8.57;7.77;;;;;;;;;;5006231;28;20187;-47
2023/09/12 05:01:37;;;;;;;9.23;8.37;;;;;;;;;;4996582;28;20194;-48
2023/09/12 05:04:03;;;;;;;8.43;7.73;;;;;;;;;;5003984;28;20186;-47
2023/09/12 05:06:30;;;;;;;8.73;7.93;;;;;;;;;;5004413;28;20186;-48
2023/09/12 05:08:56;;;;;;;8.60;7.90;;;;;;;;;;5000268;28;20244;-48
2023/09/12 05:11:24;;;;;;;8.17;7.37;;;;;;;;;;5001415;28;20174;-47
2023/09/12 05:13:51;;;;;;;8.60;7.90;;;;;;;;;;5006559;28;20511;-47
2023/09/12 05:16:17;;;;;;;9.10;8.30;;;;;;;;;;4988299;28;20205;-47
2023/09/12 05:18:43;;;;;;;8.70;7.97;;;;;;;;;;5004311;28;20202;-48
2023/09/12 05:21:09;;;;;;;8.27;7.57;;;;;;;;;;5000938;28;20313;-47
2023/09/12 05:23:35;;;;;;;8.40;7.70;;;;;;;;;;5002184;28;20694;-47
2023/09/12 05:26:02;;;;;;;9.33;8.37;;;;;;;;;;4986723;28;20628;-48
2023/09/12 05:28:28;;;;;;;19.73;17.73;;;;;;;;;;5002775;28;20368;-47
2023/09/12 05:30:55;;;;;;;21.63;19.53;;;;;;;;;;5002783;28;20206;-47
2023/09/12 05:33:21;;;;;;;22.47;20.07;;;;;;;;;;5002950;28;20183;-48
2023/09/12 05:35:47;;;;;;;21.87;19.47;;;;;;;;;;5004925;28;20630;-47
2023/09/12 05:38:13;;;;;;;23.20;20.70;;;;;;;;;;5002622;28;20286;-47
2023/09/12 05:40:39;;;;;;;22.60;20.20;;;;;;;;;;5004090;28;20542;-48
2023/09/12 05:43:05;;;;;;;22.43;20.23;;;;;;;;;;5005756;28;20183;-48
2023/09/12 05:45:32;;;;;;;23.00;20.70;;;;;;;;;;4998426;28;20203;-48
2023/09/12 05:47:59;;;;;;;23.43;21.13;;;;;;;;;;4986665;28;20186;-47
2023/09/12 05:50:25;;;;;;;23.90;21.17;;;;;;;;;;5006657;28;20631;-48
2023/09/12 05:52:51;;;;;;;25.10;22.30;;;;;;;;;;5006599;28;20738;-48
2023/09/12 05:55:17;;;;;;;24.23;21.53;;;;;;;;;;5005738;28;20226;-48
2023/09/12 05:57:44;;;;;;;26.60;21.90;;;;;;;;;;5006198;28;20198;-47
2023/09/12 06:00:11;;;;;;;25.20;21.70;;;;;;;;;;5009353;28;20182;-47
2023/09/12 06:02:38;;;;;;;27.77;22.47;;;;;;;;;;5006657;28;20185;-47
2023/09/12 06:05:04;;;;;;;24.90;22.23;;;;;;;;;;5005898;28;20198;-46
2023/09/12 06:07:32;;;;;;;27.27;24.30;;;;;;;;;;5001879;28;20276;-48
2023/09/12 06:09:58;;;;;;;27.47;21.57;;;;;;;;;;5008725;28;20277;-48
2023/09/12 06:12:24;;;;;;;24.57;20.33;;;;;;;;;;5001925;28;20275;-49
2023/09/12 06:14:50;;;;;;;16.63;12.53;;;;;;;;;;5008335;28;20339;-46
2023/09/12 06:17:16;;;;;;;7.93;7.10;;;;;;;;;;4999854;28;20186;-48
2023/09/12 06:19:42;;;;;;;10.57;5.43;;;;;;;;;;5007541;28;20530;-46
2023/09/12 06:22:11;;;;;;;8.60;4.53;;;;;;;;;;5008956;28;20704;-49
2023/09/12 06:24:39;;;;;;;8.50;5.37;;;;;;;;;;5005024;28;20198;-46
2023/09/12 06:27:05;;;;;;;4.37;3.17;;;;;;;;;;5008903;28;20189;-45
2023/09/12 06:29:31;;;;;;;4.33;2.50;;;;;;;;;;5007052;28;20232;-45
2023/09/12 06:31:57;;;;;;;3.73;2.67;;;;;;;;;;5009684;28;20193;-46
2023/09/12 06:34:23;;;;;;;4.80;3.23;;;;;;;;;;5007714;28;20177;-45
2023/09/12 06:36:49;;;;;;;3.53;2.10;;;;;;;;;;5009104;28;20180;-43
2023/09/12 06:39:15;;;;;;;3.07;2.17;;;;;;;;;;5004391;28;20189;-49
2023/09/12 06:41:42;;;;;;;5.03;2.50;;;;;;;;;;5001093;28;20289;-45
2023/09/12 06:44:09;;;;;;;5.87;2.30;;;;;;;;;;5009680;28;20304;-46
2023/09/12 06:46:37;;;;;;;4.97;2.63;;;;;;;;;;5004040;28;20196;-47
2023/09/12 06:49:03;;;;;;;5.67;2.80;;;;;;;;;;5008124;28;20220;-46
2023/09/12 06:51:29;;;;;;;3.43;2.43;;;;;;;;;;5009780;28;20656;-44
2023/09/12 06:53:55;;;;;;;4.60;2.50;;;;;;;;;;5007311;28;20209;-45
2023/09/12 06:56:22;;;;;;;4.00;2.90;;;;;;;;;;5008279;28;20205;-46
2023/09/12 06:58:49;;;;;;;4.80;2.60;;;;;;;;;;5010586;28;20182;-45
2023/09/12 07:01:15;;;;;;;4.57;2.70;;;;;;;;;;5007071;28;20670;-45
2023/09/12 07:03:41;;;;;;;4.13;3.07;;;;;;;;;;5006323;28;20178;-45
2023/09/12 07:06:08;;;;;;;6.47;2.97;;;;;;;;;;5007272;28;20179;-45
2023/09/12 07:08:34;;;;;;;5.90;3.67;;;;;;;;;;5007193;28;20175;-44
2023/09/12 07:11:05;;;;;;;6.43;3.90;;;;;;;;;;5006935;28;20615;-45
2023/09/12 07:13:31;;;;;;;5.70;4.13;;;;;;;;;;5014708;28;20254;-46
2023/09/12 07:15:58;;;;;;;9.90;3.87;;;;;;;;;;5007361;28;20171;-46
2023/09/12 07:18:24;;;;;;;4.47;2.97;;;;;;;;;;5005262;28;20174;-45
2023/09/12 07:21:00;;;;;;;4.03;2.77;;;;;;;;;;5006918;28;20197;-47
2023/09/12 07:23:27;;;;;;;5.40;2.80;;;;;;;;;;5002861;28;20189;-45
2023/09/12 07:25:54;;;;;;;5.10;3.57;;;;;;;;;;5007087;28;20207;-52
2023/09/12 07:28:20;;;;;;;6.23;3.00;;;;;;;;;;4988503;28;20249;-44
2023/09/12 07:30:46;;;;;;;3.80;2.87;;;;;;;;;;5009704;28;20230;-45
2023/09/12 07:33:13;;;;;;;5.57;3.20;;;;;;;;;;5009148;28;20702;-45
2023/09/12 07:35:39;;;;;;;4.00;3.07;;;;;;;;;;5006781;28;20587;-45
2023/09/12 07:38:05;;;;;;;6.37;3.30;;;;;;;;;;5008138;28;20182;-47
2023/09/12 07:40:31;;;;;;;4.70;2.97;;;;;;;;;;4990319;28;20182;-45
2023/09/12 07:42:57;;;;;;;3.57;2.57;;;;;;;;;;5007191;28;20179;-45
2023/09/12 07:45:24;;;;;;;3.80;3.40;;;;;;;;;;5008153;28;20244;-45
2023/09/12 07:47:50;;;;;;;3.70;2.50;;;;;;;;;;5006967;28;20182;-46
2023/09/12 07:50:16;;;;;;;7.17;3.50;;;;;;;;;;5008619;28;20590;-47
2023/09/12 07:52:43;;;;;;;4.13;2.90;;;;;;;;;;5009849;28;20602;-46
2023/09/12 07:55:09;;;;;;;4.30;2.67;;;;;;;;;;5012174;28;20186;-45
2023/09/12 07:57:36;;;;;;;7.13;3.30;;;;;;;;;;5007319;28;20186;-47
2023/09/12 08:00:04;;;;;;;5.53;3.07;;;;;;;;;;5008955;28;20265;-46
2023/09/12 08:02:30;;;;;;;3.47;3.07;;;;;;;;;;5003387;28;20286;-45
2023/09/12 08:04:57;;;;;;;4.03;2.87;;;;;;;;;;5008551;28;20325;-44
2023/09/12 08:07:23;;;;;;;5.50;3.60;;;;;;;;;;4999191;28;20185;-46
2023/09/12 08:09:50;;;;;;;4.80;3.10;;;;;;;;;;5009120;28;20649;-46
2023/09/12 08:12:17;;;;;;;3.93;3.07;;;;;;;;;;5009479;28;20657;-46
2023/09/12 08:14:45;;;;;;;7.60;4.77;;;;;;;;;;5013798;28;20224;-46
2023/09/12 08:17:11;;;;;;;4.03;3.63;;;;;;;;;;5001860;28;20175;-45
2023/09/12 08:19:37;;;;;;;4.30;3.20;;;;;;;;;;5008427;28;20273;-48
2023/09/12 08:22:04;;;;;;;7.17;3.20;;;;;;;;;;5002977;28;20183;-49
2023/09/12 08:24:30;;;;;;;4.33;3.77;;;;;;;;;;5005409;28;20214;-48
2023/09/12 08:26:56;;;;;;;3.23;2.93;;;;;;;;;;5009326;28;20170;-47
2023/09/12 08:29:24;;;;;;;3.43;3.13;;;;;;;;;;5007359;28;20226;-48
2023/09/12 08:31:50;;;;;;;3.20;2.97;;;;;;;;;;4984101;28;20198;-46
2023/09/12 08:34:16;;;;;;;4.23;2.70;;;;;;;;;;5006355;28;20225;-47
2023/09/12 08:36:43;;;;;;;3.00;2.53;;;;;;;;;;5005257;28;20499;-46
2023/09/12 08:39:12;;;;;;;3.20;3.00;;;;;;;;;;5006628;28;20179;-45
2023/09/12 08:41:39;;;;;;;3.23;2.80;;;;;;;;;;4989697;28;20632;-45
2023/09/12 08:44:08;;;;;;;3.40;3.10;;;;;;;;;;5005327;28;20185;-46
2023/09/12 08:46:34;;;;;;;4.27;3.10;;;;;;;;;;5007896;28;20664;-46
2023/09/12 08:49:00;;;;;;;3.30;2.90;;;;;;;;;;5007133;28;20206;-46
2023/09/12 08:51:27;;;;;;;3.57;2.93;;;;;;;;;;5008892;28;20182;-48
2023/09/12 08:53:53;;;;;;;4.03;3.00;;;;;;;;;;5000413;28;20213;-47
2023/09/12 08:56:19;;;;;;;4.00;3.60;;;;;;;;;;5013813;28;20592;-48
2023/09/12 08:58:47;;;;;;;3.70;3.20;;;;;;;;;;5007062;28;20229;-48
2023/09/12 09:01:14;;;;;;;4.00;3.60;;;;;;;;;;5011513;28;20677;-49
2023/09/12 09:03:42;;;;;;;4.70;4.00;;;;;;;;;;5007056;28;20208;-49
2023/09/12 09:06:12;;;;;;;7.30;6.03;;;;;;;;;;5006889;28;20537;-49
2023/09/12 09:08:39;;;;;;;9.67;7.17;;;;;;;;;;5005803;28;20244;-47
2023/09/12 09:11:06;;;;;;;8.77;8.00;;;;;;;;;;5006606;28;20189;-47
2023/09/12 09:13:35;;;;;;;12.07;10.87;;;;;;;;;;5007809;28;20177;-47
2023/09/12 09:16:13;;;;;;;19.37;17.03;;;;;;;;;;5004167;28;20243;-47
2023/09/12 09:18:51;;;;;;;22.97;19.83;;;;;;;;;;5005840;28;20180;-48
2023/09/12 09:21:19;;;;;;;35.37;21.93;;;;;;;;;;5006432;28;20551;-48
2023/09/12 09:23:46;;;;;;;29.07;19.77;;;;;;;;;;4986701;28;20265;-49
2023/09/12 09:26:12;;;;;;;28.57;21.40;;;;;;;;;;5010495;28;20183;-48
2023/09/12 09:28:39;;;;;;;23.67;19.30;;;;;;;;;;5010049;28;20218;-48
2023/09/12 09:31:10;;;;;;;26.63;20.57;;;;;;;;;;5006683;28;20466;-47
2023/09/12 09:33:37;;;;;;;22.00;17.67;;;;;;;;;;5009611;28;20321;-48
2023/09/12 09:36:04;;;;;;;20.17;15.70;;;;;;;;;;5003519;28;20210;-47
2023/09/12 09:38:31;;;;;;;16.40;14.70;;;;;;;;;;5007424;28;20210;-48
2023/09/12 09:40:57;;;;;;;17.83;16.03;;;;;;;;;;5007608;28;20232;-48
2023/09/12 09:43:24;;;;;;;17.97;15.57;;;;;;;;;;5011376;28;20559;-48
2023/09/12 09:45:50;;;;;;;20.67;16.90;;;;;;;;;;5011637;28;20175;-48
2023/09/12 09:48:20;;;;;;;18.53;15.60;;;;;;;;;;5001687;28;20190;-48
2023/09/12 09:50:47;;;;;;;17.50;15.70;;;;;;;;;;5002427;28;20230;-48
2023/09/12 09:53:13;;;;;;;19.97;17.87;;;;;;;;;;5009202;28;20635;-47
2023/09/12 09:55:39;;;;;;;18.03;16.27;;;;;;;;;;5009877;28;20183;-48
2023/09/12 09:58:08;;;;;;;17.30;15.53;;;;;;;;;;5010847;28;20233;-49
2023/09/12 10:00:35;;;;;;;19.47;17.43;;;;;;;;;;5017520;28;20167;-47
2023/09/12 10:03:02;;;;;;;18.67;16.87;;;;;;;;;;5014919;28;20186;-47
2023/09/12 10:05:29;;;;;;;23.50;20.03;;;;;;;;;;5009847;28;20600;-47
2023/09/12 10:07:56;;;;;;;27.43;23.43;;;;;;;;;;4992720;28;20187;-49
2023/09/12 10:10:24;;;;;;;37.03;30.27;;;;;;;;;;5010510;28;20678;-48
2023/09/12 10:12:52;;;;;;;31.93;28.20;;;;;;;;;;5010221;28;20214;-48
2023/09/12 10:15:19;;;;;;;31.57;28.17;;;;;;;;;;5009988;28;20638;-49
2023/09/12 10:17:47;;;;;;;28.50;24.73;;;;;;;;;;5014357;28;20178;-47
2023/09/12 10:20:20;;;;;;;29.50;26.43;;;;;;;;;;5010203;28;20305;-46
2023/09/12 10:22:53;;;;;;;28.40;25.43;;;;;;;;;;4991395;28;20298;-48
2023/09/12 10:25:19;;;;;;;32.30;27.27;;;;;;;;;;5011072;28;20837;-47
2023/09/12 10:27:45;;;;;;;29.13;26.03;;;;;;;;;;5003954;28;20223;-47
2023/09/12 10:30:12;;;;;;;31.37;26.87;;;;;;;;;;4998264;28;20222;-46
2023/09/12 10:32:39;;;;;;;30.80;27.17;;;;;;;;;;5006564;28;20190;-48
2023/09/12 10:35:06;;;;;;;30.73;26.27;;;;;;;;;;5004878;28;20553;-47
2023/09/12 10:37:35;;;;;;;29.70;26.50;;;;;;;;;;5012908;28;20540;-47
2023/09/12 10:40:06;;;;;;;27.37;22.63;;;;;;;;;;5009315;28;20186;-47
2023/09/12 10:42:33;;;;;;;22.37;20.00;;;;;;;;;;5005743;28;20205;-46
2023/09/12 10:45:00;;;;;;;20.70;18.70;;;;;;;;;;5013966;28;20264;-47
2023/09/12 10:47:26;;;;;;;21.87;19.07;;;;;;;;;;5006640;28;20195;-48
2023/09/12 10:49:53;;;;;;;21.50;19.40;;;;;;;;;;5012953;28;20915;-48
2023/09/12 10:52:26;;;;;;;21.07;18.93;;;;;;;;;;5009295;28;20179;-48
2023/09/12 10:54:53;;;;;;;20.90;18.60;;;;;;;;;;5009769;28;20495;-46
2023/09/12 10:57:19;;;;;;;19.53;17.63;;;;;;;;;;5008764;28;20622;-48
2023/09/12 11:00:04;;;;;;;19.03;17.17;;;;;;;;;;5012492;28;20179;-47
2023/09/12 11:02:34;;;;;;;19.33;14.90;;;;;;;;;;5013768;28;20290;-47
2023/09/12 11:05:01;;;;;;;15.83;14.00;;;;;;;;;;5006542;28;20186;-46
2023/09/12 11:07:34;;;;;;;13.67;12.50;;;;;;;;;;5007339;28;20198;-47
2023/09/12 11:10:19;;;;;;;12.83;11.63;;;;;;;;;;5008795;28;20199;-48
2023/09/12 11:12:52;;;;;;;9.87;8.97;;;;;;;;;;5001021;28;20175;-47
2023/09/12 11:15:19;;;;;;;11.83;10.73;;;;;;;;;;5008818;28;20381;-48
2023/09/12 11:17:49;;;;;;;10.67;9.67;;;;;;;;;;4997232;28;20181;-49
2023/09/12 11:20:16;;;;;;;9.50;8.60;;;;;;;;;;5008260;28;20190;-48
2023/09/12 11:22:43;;;;;;;9.40;8.47;;;;;;;;;;5004308;28;20208;-47
2023/09/12 11:25:25;;;;;;;8.23;7.53;;;;;;;;;;5008638;28;20262;-48
2023/09/12 11:27:51;;;;;;;8.13;7.43;;;;;;;;;;5006078;28;20224;-48
2023/09/12 11:30:21;;;;;;;8.87;7.97;;;;;;;;;;5009287;28;20234;-48
2023/09/12 11:32:49;;;;;;;8.43;6.73;;;;;;;;;;5005947;28;20279;-47
2023/09/12 11:35:23;;;;;;;8.23;7.37;;;;;;;;;;5008995;28;20192;-48
2023/09/12 11:37:49;;;;;;;10.23;7.17;;;;;;;;;;5007125;28;20191;-48
2023/09/12 11:40:16;;;;;;;6.77;6.03;;;;;;;;;;5007867;28;20501;-46
2023/09/12 11:42:42;;;;;;;8.13;7.33;;;;;;;;;;5006410;28;20713;-48
2023/09/12 11:45:09;;;;;;;7.13;6.53;;;;;;;;;;5000354;28;20174;-47
2023/09/12 11:47:40;;;;;;;10.03;7.53;;;;;;;;;;5003836;28;20188;-48
2023/09/12 11:50:09;;;;;;;8.40;7.60;;;;;;;;;;5004850;28;20691;-47
2023/09/12 11:52:40;;;;;;;7.80;6.10;;;;;;;;;;5005504;28;20519;-46
2023/09/12 11:55:07;;;;;;;6.70;6.00;;;;;;;;;;5008264;28;20176;-47
2023/09/12 11:57:36;;;;;;;7.03;6.17;;;;;;;;;;5006763;28;20835;-49
2023/09/12 12:00:08;;;;;;;8.43;6.43;;;;;;;;;;5004844;28;20608;-48
2023/09/12 12:02:34;;;;;;;7.17;6.57;;;;;;;;;;5003625;28;20769;-48
2023/09/12 12:05:01;;;;;;;7.97;6.87;;;;;;;;;;5006981;28;20184;-49
2023/09/12 12:07:27;;;;;;;6.87;6.30;;;;;;;;;;5005337;28;20210;-46
2023/09/12 12:09:53;;;;;;;7.60;6.90;;;;;;;;;;5007519;28;20206;-48
2023/09/12 12:12:20;;;;;;;6.63;5.90;;;;;;;;;;5007511;28;20170;-47
2023/09/12 12:14:46;;;;;;;7.53;5.93;;;;;;;;;;5005258;28;20170;-48
2023/09/12 12:17:13;;;;;;;6.47;5.70;;;;;;;;;;5002893;28;20199;-49
2023/09/12 12:19:39;;;;;;;6.57;5.33;;;;;;;;;;5003336;28;20693;-47
2023/09/12 12:22:06;;;;;;;6.70;6.10;;;;;;;;;;5005168;28;20571;-47
2023/09/12 12:24:38;;;;;;;6.27;5.63;;;;;;;;;;5006043;28;20305;-47
2023/09/12 12:27:05;;;;;;;5.60;5.20;;;;;;;;;;4980398;28;20174;-48
2023/09/12 12:29:33;;;;;;;6.37;5.87;;;;;;;;;;5004033;28;20276;-50
2023/09/12 12:32:02;;;;;;;7.00;6.40;;;;;;;;;;5005607;28;20195;-47
2023/09/12 12:34:28;;;;;;;6.27;5.67;;;;;;;;;;5005894;28;20532;-47
2023/09/12 12:36:55;;;;;;;7.37;6.53;;;;;;;;;;5005181;28;20182;-49
2023/09/12 12:39:24;;;;;;;7.33;6.73;;;;;;;;;;5003522;28;20219;-47
2023/09/12 12:41:53;;;;;;;5.80;5.33;;;;;;;;;;5004238;28;20301;-47
2023/09/12 12:44:20;;;;;;;8.30;6.27;;;;;;;;;;5006453;28;20190;-48
2023/09/12 12:46:53;;;;;;;7.93;5.43;;;;;;;;;;4987669;28;20247;-49
2023/09/12 12:49:20;;;;;;;8.88;6.93;;;;;;;;;;5006435;28;20206;-48
2023/09/12 12:51:46;;;;;;;6.53;5.97;;;;;;;;;;5006534;28;20185;-48
2023/09/12 12:54:13;;;;;;;6.45;5.93;;;;;;;;;;5006851;28;20549;-48
2023/09/12 12:56:40;;;;;;;8.07;7.38;;;;;;;;;;5008744;28;20182;-47
2023/09/12 12:59:08;;;;;;;8.17;7.47;;;;;;;;;;5003026;28;20191;-49
2023/09/12 13:01:35;;;;;;;8.05;7.28;;;;;;;;;;5002287;28;20186;-47
2023/09/12 13:04:02;;;;;;;7.40;6.70;;;;;;;;;;5007447;28;20191;-51
2023/09/12 13:06:29;;;;;;;7.83;7.13;;;;;;;;;;5008719;28;20434;-48
2023/09/12 13:09:01;;;;;;;6.90;6.30;;;;;;;;;;5008804;28;20599;-47
2023/09/12 13:11:27;;;;;;;7.53;6.85;;;;;;;;;;5011689;28;20599;-49
2023/09/12 13:13:53;;;;;;;6.10;5.70;;;;;;;;;;5010000;28;20183;-48
2023/09/12 13:16:19;;;;;;;6.72;6.13;;;;;;;;;;5011340;28;20179;-48
2023/09/12 13:18:46;;;;;;;7.57;6.97;;;;;;;;;;5011477;28;20181;-49
2023/09/12 13:21:12;;;;;;;7.47;6.77;;;;;;;;;;5007622;28;20530;-48
2023/09/12 13:23:39;;;;;;;6.93;6.30;;;;;;;;;;5008872;28;20675;-49
2023/09/12 13:26:06;;;;;;;7.50;6.90;;;;;;;;;;5009611;28;20191;-49
2023/09/12 13:28:33;;;;;;;6.50;6.07;;;;;;;;;;5005226;28;20260;-49
2023/09/12 13:30:59;;;;;;;7.60;6.43;;;;;;;;;;5005296;28;20229;-48
2023/09/12 13:33:25;;;;;;;8.10;7.40;;;;;;;;;;5004987;28;20635;-47
2023/09/12 13:35:52;;;;;;;8.50;7.60;;;;;;;;;;5008367;28;20176;-46
2023/09/12 13:38:19;;;;;;;9.03;8.23;;;;;;;;;;5010923;28;20276;-48
2023/09/12 13:40:46;;;;;;;7.73;7.10;;;;;;;;;;5011913;28;20186;-47
2023/09/12 13:43:13;;;;;;;8.17;7.40;;;;;;;;;;5011436;28;20186;-48
2023/09/12 13:45:39;;;;;;;8.13;7.30;;;;;;;;;;5011221;28;20232;-47
2023/09/12 13:48:06;;;;;;;9.07;8.27;;;;;;;;;;5010848;28;20283;-47
2023/09/12 13:50:32;;;;;;;9.30;8.07;;;;;;;;;;5011415;28;20209;-47
2023/09/12 13:52:59;;;;;;;9.37;8.30;;;;;;;;;;5010910;28;20181;-48
2023/09/12 13:55:26;;;;;;;8.97;8.23;;;;;;;;;;4993854;28;20180;-47
2023/09/12 13:57:52;;;;;;;9.10;8.20;;;;;;;;;;5011598;28;20229;-46
2023/09/12 14:00:18;;;;;;;8.37;7.57;;;;;;;;;;5011161;28;20682;-48
2023/09/12 14:02:44;;;;;;;9.00;8.10;;;;;;;;;;5010664;28;20196;-48
2023/09/12 14:05:12;;;;;;;10.90;7.97;;;;;;;;;;5011054;28;20181;-48
2023/09/12 14:07:39;;;;;;;8.63;7.83;;;;;;;;;;5009613;28;20193;-47
2023/09/12 14:10:07;;;;;;;10.60;9.50;;;;;;;;;;5011150;28;20234;-49
2023/09/12 14:12:33;;;;;;;10.10;9.10;;;;;;;;;;5010151;28;20272;-49
2023/09/12 14:14:59;;;;;;;10.43;8.57;;;;;;;;;;5010322;28;20504;-48
2023/09/12 14:17:26;;;;;;;8.80;8.10;;;;;;;;;;5010223;28;20178;-48
2023/09/12 14:19:52;;;;;;;8.83;8.03;;;;;;;;;;5007600;28;20185;-49
2023/09/12 14:22:18;;;;;;;8.87;8.17;;;;;;;;;;5005360;28;20653;-49
2023/09/12 14:24:44;;;;;;;8.43;7.63;;;;;;;;;;5006232;28;20729;-48
2023/09/12 14:27:11;;;;;;;8.80;8.00;;;;;;;;;;5009925;28;20198;-47
2023/09/12 14:29:37;;;;;;;9.10;8.30;;;;;;;;;;5004257;28;20217;-49
2023/09/12 14:32:06;;;;;;;8.67;7.70;;;;;;;;;;5010407;28;20175;-49
2023/09/12 14:34:32;;;;;;;9.37;8.57;;;;;;;;;;5010818;28;20192;-48
2023/09/12 14:36:59;;;;;;;8.73;7.93;;;;;;;;;;5010472;28;20154;-49